createdAt,value
2017-05-22T00:00:12.827Z,0
2017-05-22T00:00:53.301Z,0
2017-05-22T00:01:33.784Z,0
2017-05-22T00:02:14.203Z,0
2017-05-22T00:02:54.658Z,0
2017-05-22T00:03:35.115Z,0
2017-05-22T00:04:15.597Z,0
2017-05-22T00:04:56.053Z,0
2017-05-22T00:05:36.532Z,0
2017-05-22T00:06:17.027Z,0
2017-05-22T00:06:57.518Z,0
2017-05-22T00:07:37.980Z,0
2017-05-22T00:08:18.430Z,0
2017-05-22T00:08:58.902Z,0
2017-05-22T00:09:39.382Z,0
2017-05-22T00:10:19.873Z,0
2017-05-22T00:11:00.340Z,0
2017-05-22T00:11:40.825Z,0
2017-05-22T00:12:21.314Z,0
2017-05-22T00:13:01.791Z,0
2017-05-22T00:13:42.257Z,0
2017-05-22T00:14:22.719Z,0
2017-05-22T00:15:03.210Z,0
2017-05-22T00:15:43.729Z,0
2017-05-22T00:16:24.203Z,0
2017-05-22T00:17:04.659Z,0
2017-05-22T00:17:45.130Z,0
2017-05-22T00:18:25.579Z,0
2017-05-22T00:19:06.061Z,0
2017-05-22T00:19:47.158Z,0
2017-05-22T00:20:27.582Z,0
2017-05-22T00:21:08.045Z,0
2017-05-22T00:21:48.473Z,0
2017-05-22T00:24:01.193Z,0
2017-05-22T00:24:41.685Z,0
2017-05-22T00:25:22.173Z,0
2017-05-22T00:26:02.654Z,0
2017-05-22T00:26:43.103Z,0
2017-05-22T00:27:23.557Z,0
2017-05-22T00:28:03.973Z,0
2017-05-22T00:28:44.484Z,0
2017-05-22T00:29:24.939Z,0
2017-05-22T00:30:05.420Z,0
2017-05-22T00:30:45.887Z,0
2017-05-22T00:31:26.337Z,0
2017-05-22T00:33:39.095Z,0
2017-05-22T00:34:19.597Z,0
2017-05-22T00:35:00.080Z,0
2017-05-22T00:35:40.571Z,0
2017-05-22T00:36:21.044Z,0
2017-05-22T00:37:01.530Z,0
2017-05-22T00:37:42.017Z,0
2017-05-22T00:38:22.536Z,0
2017-05-22T00:39:03.025Z,0
2017-05-22T00:39:43.507Z,0
2017-05-22T00:40:24.873Z,0
2017-05-22T00:41:05.363Z,0
2017-05-22T00:41:46.648Z,0
2017-05-22T00:42:27.155Z,0
2017-05-22T00:43:07.667Z,0
2017-05-22T00:43:48.152Z,0
2017-05-22T00:44:28.642Z,0
2017-05-22T00:45:09.146Z,0
2017-05-22T00:45:49.645Z,0
2017-05-22T00:46:30.130Z,0
2017-05-22T00:47:10.616Z,0
2017-05-22T00:47:51.090Z,0
2017-05-22T00:48:31.579Z,0
2017-05-22T00:49:12.062Z,0
2017-05-22T00:49:52.562Z,0
2017-05-22T00:50:33.038Z,0
2017-05-22T00:51:13.504Z,0
2017-05-22T00:51:53.985Z,0
2017-05-22T00:52:34.456Z,0
2017-05-22T00:53:14.904Z,0
2017-05-22T00:53:55.418Z,0
2017-05-22T00:54:35.925Z,0
2017-05-22T00:55:16.434Z,0
2017-05-22T00:55:56.881Z,0
2017-05-22T00:56:37.371Z,0
2017-05-22T00:57:17.853Z,0
2017-05-22T00:57:58.347Z,0
2017-05-22T00:58:38.837Z,0
2017-05-22T00:59:19.338Z,0
2017-05-22T01:01:47.255Z,0
2017-05-22T01:02:28.648Z,0
2017-05-22T01:03:09.145Z,0
2017-05-22T01:03:49.623Z,0
2017-05-22T01:04:30.105Z,0
2017-05-22T01:05:10.596Z,0
2017-05-22T01:05:51.078Z,0
2017-05-22T01:06:31.576Z,0
2017-05-22T01:07:12.045Z,0
2017-05-22T01:07:52.564Z,0
2017-05-22T01:08:33.097Z,0
2017-05-22T01:09:13.604Z,0
2017-05-22T01:09:54.075Z,0
2017-05-22T01:10:34.574Z,0
2017-05-22T01:11:15.055Z,0
2017-05-22T01:11:55.541Z,0
2017-05-22T01:12:36.009Z,0
2017-05-22T01:13:16.490Z,0
2017-05-22T01:13:56.976Z,0
2017-05-22T01:14:37.483Z,0
2017-05-22T01:15:17.959Z,0
2017-05-22T01:15:58.437Z,0
2017-05-22T01:16:38.899Z,0
2017-05-22T01:17:19.394Z,0
2017-05-22T01:18:00.736Z,0
2017-05-22T01:18:41.226Z,0
2017-05-22T01:19:21.708Z,0
2017-05-22T01:20:02.186Z,0
2017-05-22T01:20:42.680Z,0
2017-05-22T01:21:23.166Z,0
2017-05-22T01:22:03.667Z,0
2017-05-22T01:22:44.126Z,0
2017-05-22T01:23:24.639Z,0
2017-05-22T01:24:05.125Z,0
2017-05-22T01:24:45.617Z,0
2017-05-22T01:27:23.745Z,0
2017-05-22T01:28:04.231Z,0
2017-05-22T01:28:44.713Z,0
2017-05-22T01:29:25.198Z,0
2017-05-22T01:30:05.679Z,0
2017-05-22T01:30:46.169Z,0
2017-05-22T01:31:26.648Z,0
2017-05-22T01:32:07.136Z,0
2017-05-22T01:32:47.619Z,0
2017-05-22T01:33:28.101Z,0
2017-05-22T01:34:09.143Z,0
2017-05-22T01:34:49.611Z,0
2017-05-22T01:35:30.097Z,0
2017-05-22T01:36:10.574Z,0
2017-05-22T01:36:51.057Z,0
2017-05-22T01:37:31.545Z,0
2017-05-22T01:38:12.119Z,0
2017-05-22T01:38:52.537Z,0
2017-05-22T01:39:33.019Z,0
2017-05-22T01:40:13.510Z,0
2017-05-22T01:40:54.008Z,0
2017-05-22T01:41:34.492Z,0
2017-05-22T01:42:14.976Z,0
2017-05-22T01:42:55.474Z,0
2017-05-22T01:43:35.951Z,0
2017-05-22T01:44:16.489Z,0
2017-05-22T01:44:56.969Z,0
2017-05-22T01:45:37.443Z,0
2017-05-22T01:48:06.170Z,0
2017-05-22T01:48:46.660Z,0
2017-05-22T01:49:27.159Z,0
2017-05-22T01:50:07.636Z,0
2017-05-22T01:50:48.133Z,0
2017-05-22T01:51:28.634Z,0
2017-05-22T01:52:09.105Z,0
2017-05-22T01:52:49.587Z,0
2017-05-22T01:53:30.074Z,0
2017-05-22T01:54:10.569Z,0
2017-05-22T01:54:51.053Z,0
2017-05-22T01:57:08.831Z,0
2017-05-22T01:57:49.310Z,0
2017-05-22T01:58:29.803Z,0
2017-05-22T01:59:10.279Z,0
2017-05-22T01:59:50.723Z,0
2017-05-22T02:00:31.213Z,0
2017-05-22T02:01:11.706Z,0
2017-05-22T02:01:52.191Z,0
2017-05-22T02:02:32.659Z,0
2017-05-22T02:03:13.150Z,0
2017-05-22T02:03:53.638Z,0
2017-05-22T02:04:34.120Z,0
2017-05-22T02:05:14.616Z,0
2017-05-22T02:05:55.092Z,0
2017-05-22T02:06:35.538Z,0
2017-05-22T02:07:16.018Z,0
2017-05-22T02:07:56.479Z,0
2017-05-22T02:08:36.917Z,0
2017-05-22T02:09:17.373Z,0
2017-05-22T02:09:57.833Z,0
2017-05-22T02:10:38.287Z,0
2017-05-22T02:11:18.748Z,0
2017-05-22T02:11:59.857Z,0
2017-05-22T02:12:40.325Z,0
2017-05-22T02:15:08.347Z,0
2017-05-22T02:15:48.758Z,0
2017-05-22T02:16:29.238Z,0
2017-05-22T02:19:07.350Z,0
2017-05-22T02:19:47.781Z,0
2017-05-22T02:20:28.229Z,0
2017-05-22T02:21:08.700Z,0
2017-05-22T02:21:49.118Z,0
2017-05-22T02:22:29.533Z,0
2017-05-22T02:23:09.971Z,0
2017-05-22T02:25:49.065Z,0
2017-05-22T02:26:29.451Z,0
2017-05-22T02:27:09.937Z,0
2017-05-22T02:27:50.444Z,0
2017-05-22T02:28:31.873Z,0
2017-05-22T02:29:12.375Z,0
2017-05-22T02:29:52.870Z,0
2017-05-22T02:30:33.353Z,0
2017-05-22T02:31:14.637Z,0
2017-05-22T02:31:55.112Z,0
2017-05-22T02:32:35.597Z,0
2017-05-22T02:33:16.035Z,0
2017-05-22T02:33:56.494Z,0
2017-05-22T02:36:14.295Z,0
2017-05-22T02:36:54.756Z,0
2017-05-22T02:37:35.269Z,0
2017-05-22T02:38:15.745Z,0
2017-05-22T02:38:56.229Z,0
2017-05-22T02:39:36.725Z,0
2017-05-22T02:40:17.217Z,0
2017-05-22T02:40:57.690Z,0
2017-05-22T02:41:38.176Z,0
2017-05-22T02:42:19.284Z,0
2017-05-22T02:42:59.831Z,0
2017-05-22T02:43:40.248Z,0
2017-05-22T02:44:21.714Z,0
2017-05-22T02:45:02.193Z,0
2017-05-22T02:45:42.685Z,0
2017-05-22T02:46:23.177Z,0
2017-05-22T02:47:03.636Z,0
2017-05-22T02:47:44.100Z,0
2017-05-22T02:48:24.586Z,0
2017-05-22T02:49:05.075Z,0
2017-05-22T02:49:45.548Z,0
2017-05-22T02:50:26.024Z,0
2017-05-22T02:51:06.512Z,0
2017-05-22T02:51:46.992Z,0
2017-05-22T02:52:27.484Z,0
2017-05-22T02:53:07.974Z,0
2017-05-22T02:53:49.013Z,0
2017-05-22T02:54:29.497Z,0
2017-05-22T02:55:09.995Z,0
2017-05-22T02:55:50.481Z,0
2017-05-22T02:56:30.921Z,0
2017-05-22T02:57:11.369Z,0
2017-05-22T02:57:51.837Z,0
2017-05-22T03:00:24.847Z,0
2017-05-22T03:01:05.340Z,0
2017-05-22T03:01:45.871Z,0
2017-05-22T03:02:26.305Z,0
2017-05-22T03:03:06.796Z,0
2017-05-22T03:03:47.296Z,0
2017-05-22T03:06:25.406Z,0
2017-05-22T03:07:05.907Z,0
2017-05-22T03:07:47.199Z,0
2017-05-22T03:08:27.693Z,0
2017-05-22T03:09:08.175Z,0
2017-05-22T03:09:48.675Z,0
2017-05-22T03:10:29.163Z,0
2017-05-22T03:11:09.649Z,0
2017-05-22T03:11:50.140Z,0
2017-05-22T03:12:30.599Z,0
2017-05-22T03:13:11.894Z,0
2017-05-22T03:13:52.366Z,0
2017-05-22T03:14:32.864Z,0
2017-05-22T03:16:50.722Z,0
2017-05-22T03:17:31.186Z,0
2017-05-22T03:18:11.628Z,0
2017-05-22T03:18:52.046Z,0
2017-05-22T03:19:32.490Z,0
2017-05-22T03:20:12.911Z,0
2017-05-22T03:20:53.386Z,0
2017-05-22T03:21:33.813Z,0
2017-05-22T03:24:11.944Z,0
2017-05-22T03:24:52.407Z,0
2017-05-22T03:25:32.900Z,0
2017-05-22T03:26:13.389Z,0
2017-05-22T03:26:53.888Z,0
2017-05-22T03:27:34.382Z,0
2017-05-22T03:28:14.881Z,0
2017-05-22T03:28:55.354Z,0
2017-05-22T03:29:35.842Z,0
2017-05-22T03:30:16.343Z,0
2017-05-22T03:30:57.698Z,0
2017-05-22T03:31:38.193Z,0
2017-05-22T03:32:18.677Z,0
2017-05-22T03:32:59.206Z,0
2017-05-22T03:33:39.675Z,5
2017-05-22T03:34:20.157Z,5
2017-05-22T03:35:00.659Z,5
2017-05-22T03:35:41.829Z,5
2017-05-22T03:36:22.291Z,5
2017-05-22T03:37:02.755Z,5
2017-05-22T03:37:43.231Z,5
2017-05-22T03:38:23.717Z,5
2017-05-22T03:39:04.214Z,5
2017-05-22T03:39:44.767Z,5
2017-05-22T03:40:25.260Z,5
2017-05-22T03:41:05.740Z,5
2017-05-22T03:41:46.214Z,5
2017-05-22T03:42:27.391Z,5
2017-05-22T03:43:07.895Z,5
2017-05-22T03:43:48.339Z,10
2017-05-22T03:44:28.794Z,10
2017-05-22T03:45:09.239Z,10
2017-05-22T03:45:49.687Z,10
2017-05-22T03:46:30.152Z,10
2017-05-22T03:47:10.634Z,10
2017-05-22T03:49:23.354Z,10
2017-05-22T03:50:03.847Z,10
2017-05-22T03:50:44.312Z,10
2017-05-22T03:51:24.800Z,10
2017-05-22T03:52:05.299Z,15
2017-05-22T03:52:45.755Z,15
2017-05-22T03:53:26.238Z,15
2017-05-22T03:54:06.745Z,15
2017-05-22T03:54:47.228Z,15
2017-05-22T03:55:27.717Z,15
2017-05-22T03:56:08.207Z,15
2017-05-22T03:56:48.710Z,15
2017-05-22T03:57:29.186Z,15
2017-05-22T03:58:09.675Z,20
2017-05-22T03:58:50.147Z,20
2017-05-22T03:59:30.643Z,20
2017-05-22T04:00:11.117Z,20
2017-05-22T04:00:51.612Z,20
2017-05-22T04:01:32.068Z,20
2017-05-22T04:02:12.503Z,20
2017-05-22T04:02:52.976Z,20
2017-05-22T04:05:06.610Z,20
2017-05-22T04:05:47.095Z,25
2017-05-22T04:06:27.629Z,25
2017-05-22T04:07:08.083Z,25
2017-05-22T04:07:48.553Z,25
2017-05-22T04:08:29.051Z,25
2017-05-22T04:09:09.508Z,25
2017-05-22T04:09:49.981Z,25
2017-05-22T04:10:30.473Z,30
2017-05-22T04:11:12.118Z,30
2017-05-22T04:11:52.576Z,30
2017-05-22T04:12:33.074Z,35
2017-05-22T04:13:13.553Z,35
2017-05-22T04:13:54.046Z,35
2017-05-22T04:14:34.553Z,35
2017-05-22T04:15:15.044Z,35
2017-05-22T04:15:55.522Z,35
2017-05-22T04:16:35.959Z,35
2017-05-22T04:17:16.431Z,40
2017-05-22T04:17:56.848Z,40
2017-05-22T04:18:37.322Z,40
2017-05-22T04:19:17.814Z,40
2017-05-22T04:19:58.295Z,40
2017-05-22T04:20:38.759Z,40
2017-05-22T04:21:19.204Z,45
2017-05-22T04:21:59.666Z,45
2017-05-22T04:22:40.113Z,45
2017-05-22T04:23:20.572Z,45
2017-05-22T04:24:01.053Z,45
2017-05-22T04:24:41.550Z,45
2017-05-22T04:25:22.034Z,45
2017-05-22T04:26:02.529Z,50
2017-05-22T04:26:42.963Z,50
2017-05-22T04:29:11.064Z,50
2017-05-22T04:29:51.536Z,55
2017-05-22T04:30:31.952Z,55
2017-05-22T04:31:12.411Z,55
2017-05-22T04:31:52.874Z,55
2017-05-22T04:32:33.331Z,55
2017-05-22T04:33:13.791Z,60
2017-05-22T04:33:54.244Z,60
2017-05-22T04:34:34.669Z,60
2017-05-22T04:35:15.147Z,60
2017-05-22T04:35:55.601Z,60
2017-05-22T04:36:36.090Z,65
2017-05-22T04:37:16.543Z,65
2017-05-22T04:37:56.974Z,70
2017-05-22T04:38:37.416Z,75
2017-05-22T04:41:15.499Z,80
2017-05-22T04:41:55.986Z,85
2017-05-22T04:42:36.445Z,85
2017-05-22T04:43:17.774Z,85
2017-05-22T04:43:58.261Z,85
2017-05-22T04:44:38.728Z,85
2017-05-22T04:45:19.152Z,85
2017-05-22T04:45:59.591Z,85
2017-05-22T04:46:40.065Z,90
2017-05-22T04:47:21.200Z,90
2017-05-22T04:48:03.458Z,95
2017-05-22T04:48:43.907Z,95
2017-05-22T04:49:24.375Z,95
2017-05-22T04:51:57.396Z,95
2017-05-22T04:52:37.888Z,100
2017-05-22T04:53:19.285Z,105
2017-05-22T04:53:59.774Z,110
2017-05-22T04:54:40.278Z,110
2017-05-22T04:55:20.790Z,110
2017-05-22T04:56:01.298Z,115
2017-05-22T04:56:41.776Z,115
2017-05-22T04:57:22.256Z,115
2017-05-22T04:58:02.754Z,110
2017-05-22T04:58:43.276Z,110
2017-05-22T04:59:23.761Z,110
2017-05-22T05:00:04.230Z,115
2017-05-22T05:00:44.717Z,115
2017-05-22T05:01:26.087Z,120
2017-05-22T05:02:06.562Z,120
2017-05-22T05:02:47.044Z,120
2017-05-22T05:03:27.508Z,125
2017-05-22T05:04:08.042Z,130
2017-05-22T05:04:48.495Z,135
2017-05-22T05:05:30.871Z,140
2017-05-22T05:06:11.348Z,140
2017-05-22T05:06:51.805Z,140
2017-05-22T05:07:32.291Z,140
2017-05-22T05:08:12.739Z,145
2017-05-22T05:08:53.193Z,145
2017-05-22T05:09:33.655Z,145
2017-05-22T05:12:01.613Z,150
2017-05-22T05:12:42.071Z,150
2017-05-22T05:15:15.068Z,155
2017-05-22T05:15:55.560Z,155
2017-05-22T05:16:36.289Z,155
2017-05-22T05:17:16.765Z,155
2017-05-22T05:17:57.250Z,155
2017-05-22T05:20:30.327Z,160
2017-05-22T05:21:10.750Z,165
2017-05-22T05:21:51.261Z,165
2017-05-22T05:22:31.765Z,165
2017-05-22T05:23:12.229Z,165
2017-05-22T05:23:52.659Z,170
2017-05-22T05:24:33.124Z,170
2017-05-22T05:26:51.903Z,175
2017-05-22T05:27:32.388Z,175
2017-05-22T05:28:12.889Z,180
2017-05-22T05:28:53.382Z,180
2017-05-22T05:29:33.869Z,180
2017-05-22T05:30:14.351Z,185
2017-05-22T05:30:54.815Z,185
2017-05-22T05:31:35.309Z,185
2017-05-22T05:34:13.410Z,190
2017-05-22T05:34:53.868Z,195
2017-05-22T05:35:34.342Z,195
2017-05-22T05:36:16.307Z,200
2017-05-22T05:36:56.771Z,200
2017-05-22T05:37:37.218Z,200
2017-05-22T05:40:10.232Z,205
2017-05-22T05:40:50.740Z,210
2017-05-22T05:41:31.212Z,210
2017-05-22T05:42:13.129Z,210
2017-05-22T05:42:53.645Z,215
2017-05-22T05:43:34.124Z,215
2017-05-22T05:44:14.607Z,215
2017-05-22T05:44:55.110Z,220
2017-05-22T05:45:36.447Z,220
2017-05-22T05:46:16.946Z,225
2017-05-22T05:46:57.463Z,225
2017-05-22T05:47:37.950Z,225
2017-05-22T05:48:18.438Z,230
2017-05-22T05:48:58.922Z,230
2017-05-22T05:49:39.412Z,230
2017-05-22T05:50:19.891Z,230
2017-05-22T05:51:00.369Z,230
2017-05-22T05:51:40.913Z,230
2017-05-22T05:52:21.384Z,235
2017-05-22T05:53:01.856Z,235
2017-05-22T05:53:42.334Z,235
2017-05-22T05:54:22.818Z,240
2017-05-22T05:55:03.257Z,240
2017-05-22T05:55:43.757Z,240
2017-05-22T05:56:24.877Z,245
2017-05-22T05:57:06.051Z,245
2017-05-22T05:59:18.799Z,250
2017-05-22T05:59:59.272Z,255
2017-05-22T06:00:41.736Z,255
2017-05-22T06:01:22.163Z,260
2017-05-22T06:02:03.292Z,260
2017-05-22T06:04:31.260Z,270
2017-05-22T06:05:11.926Z,270
2017-05-22T06:05:52.377Z,270
2017-05-22T06:06:32.852Z,275
2017-05-22T06:07:13.334Z,275
2017-05-22T06:07:53.779Z,275
2017-05-22T06:08:34.276Z,280
2017-05-22T06:09:14.758Z,280
2017-05-22T06:09:55.188Z,285
2017-05-22T06:10:35.656Z,285
2017-05-22T06:11:16.082Z,285
2017-05-22T06:11:56.518Z,290
2017-05-22T06:12:37.085Z,290
2017-05-22T06:13:17.539Z,295
2017-05-22T06:13:58.012Z,295
2017-05-22T06:14:38.536Z,295
2017-05-22T06:15:20.482Z,295
2017-05-22T06:16:01.810Z,300
2017-05-22T06:16:42.538Z,300
2017-05-22T06:17:22.811Z,305
2017-05-22T06:18:03.263Z,305
2017-05-22T06:18:43.753Z,310
2017-05-22T06:21:21.885Z,320
2017-05-22T06:22:03.065Z,320
2017-05-22T06:22:43.531Z,330
2017-05-22T06:25:22.223Z,335
2017-05-22T06:26:02.668Z,335
2017-05-22T06:26:43.117Z,340
2017-05-22T06:27:23.602Z,340
2017-05-22T06:28:04.086Z,345
2017-05-22T06:28:44.591Z,345
2017-05-22T06:29:25.032Z,355
2017-05-22T06:30:05.579Z,350
2017-05-22T06:30:46.032Z,350
2017-05-22T06:31:26.524Z,350
2017-05-22T06:32:07.026Z,355
2017-05-22T06:32:47.498Z,360
2017-05-22T06:33:27.984Z,360
2017-05-22T06:34:08.411Z,365
2017-05-22T06:36:21.700Z,375
2017-05-22T06:37:02.185Z,380
2017-05-22T06:37:42.671Z,380
2017-05-22T06:38:23.153Z,385
2017-05-22T06:39:03.608Z,390
2017-05-22T06:39:44.052Z,390
2017-05-22T06:40:25.426Z,395
2017-05-22T06:41:05.898Z,395
2017-05-22T06:41:46.375Z,395
2017-05-22T06:42:27.691Z,400
2017-05-22T06:45:01.501Z,415
2017-05-22T06:45:41.994Z,420
2017-05-22T06:46:23.403Z,425
2017-05-22T06:47:04.568Z,425
2017-05-22T06:47:45.054Z,430
2017-05-22T06:48:25.540Z,435
2017-05-22T06:49:06.041Z,440
2017-05-22T06:49:47.408Z,440
2017-05-22T06:50:30.558Z,445
2017-05-22T06:51:11.067Z,450
2017-05-22T06:53:44.150Z,465
2017-05-22T06:54:24.627Z,465
2017-05-22T06:55:05.121Z,470
2017-05-22T06:55:45.574Z,475
2017-05-22T06:56:26.063Z,475
2017-05-22T06:57:06.548Z,485
2017-05-22T06:57:47.008Z,485
2017-05-22T06:58:27.467Z,485
2017-05-22T06:59:07.895Z,490
2017-05-22T06:59:48.388Z,490
2017-05-22T07:00:28.866Z,490
2017-05-22T07:01:09.445Z,495
2017-05-22T07:01:49.816Z,500
2017-05-22T07:02:30.269Z,505
2017-05-22T07:03:11.715Z,510
2017-05-22T07:03:52.174Z,515
2017-05-22T07:04:32.630Z,520
2017-05-22T07:07:10.978Z,540
2017-05-22T07:07:51.487Z,545
2017-05-22T07:08:31.960Z,545
2017-05-22T07:09:12.401Z,550
2017-05-22T07:11:45.428Z,565
2017-05-22T07:12:25.877Z,575
2017-05-22T07:13:06.486Z,580
2017-05-22T07:13:46.875Z,580
2017-05-22T07:14:27.314Z,585
2017-05-22T07:15:07.809Z,590
2017-05-22T07:17:40.846Z,610
2017-05-22T07:18:21.923Z,610
2017-05-22T07:19:02.397Z,620
2017-05-22T07:19:42.881Z,615
2017-05-22T07:20:23.371Z,625
2017-05-22T07:21:03.878Z,630
2017-05-22T07:21:44.317Z,635
2017-05-22T07:22:25.745Z,640
2017-05-22T07:23:06.244Z,645
2017-05-22T07:23:46.728Z,650
2017-05-22T07:26:04.541Z,670
2017-05-22T07:26:45.027Z,675
2017-05-22T07:27:25.454Z,685
2017-05-22T07:28:06.569Z,690
2017-05-22T07:28:48.692Z,700
2017-05-22T07:29:29.201Z,710
2017-05-22T07:30:09.619Z,715
2017-05-22T07:30:50.122Z,725
2017-05-22T07:33:23.348Z,765
2017-05-22T07:34:03.781Z,780
2017-05-22T07:34:44.289Z,815
2017-05-22T07:35:24.759Z,845
2017-05-22T07:37:52.744Z,2270
2017-05-22T07:38:33.412Z,3370
2017-05-22T07:39:13.729Z,3895
2017-05-22T07:39:54.185Z,3415
2017-05-22T07:40:34.651Z,2365
2017-05-22T07:41:15.226Z,1955
2017-05-22T07:41:55.703Z,1850
2017-05-22T07:42:36.121Z,1945
2017-05-22T07:43:16.621Z,1950
2017-05-22T07:43:57.154Z,1690
2017-05-22T07:44:37.597Z,1480
2017-05-22T07:45:18.063Z,1085
2017-05-22T07:45:58.538Z,785
2017-05-22T07:46:39.060Z,615
2017-05-22T07:47:19.524Z,550
2017-05-22T07:47:59.990Z,530
2017-05-22T07:48:40.419Z,520
2017-05-22T07:49:20.894Z,510
2017-05-22T07:51:54.072Z,505
2017-05-22T07:52:34.548Z,510
2017-05-22T07:53:15.053Z,520
2017-05-22T07:55:32.903Z,530
2017-05-22T07:56:13.406Z,535
2017-05-22T07:56:53.954Z,545
2017-05-22T07:57:34.333Z,555
2017-05-22T07:58:14.819Z,565
2017-05-22T07:58:55.351Z,570
2017-05-22T07:59:35.850Z,590
2017-05-22T08:00:17.212Z,610
2017-05-22T08:00:57.689Z,685
2017-05-22T08:01:38.162Z,765
2017-05-22T08:02:19.504Z,760
2017-05-22T08:02:59.983Z,710
2017-05-22T08:05:38.137Z,770
2017-05-22T08:06:18.563Z,760
2017-05-22T08:06:59.010Z,775
2017-05-22T08:07:39.462Z,825
2017-05-22T08:08:19.946Z,880
2017-05-22T08:09:05.328Z,875
2017-05-22T08:09:45.866Z,875
2017-05-22T08:10:26.255Z,865
2017-05-22T08:11:06.966Z,870
2017-05-22T08:11:47.409Z,890
2017-05-22T08:12:27.931Z,890
2017-05-22T08:13:08.610Z,910
2017-05-22T08:13:50.884Z,985
2017-05-22T08:14:32.031Z,970
2017-05-22T08:15:12.520Z,1020
2017-05-22T08:15:53.076Z,1070
2017-05-22T08:18:10.910Z,1305
2017-05-22T08:18:52.169Z,1475
2017-05-22T08:19:32.658Z,1665
2017-05-22T08:20:13.160Z,1700
2017-05-22T08:20:53.660Z,1650
2017-05-22T08:21:34.136Z,1490
2017-05-22T08:22:14.594Z,1245
2017-05-22T08:22:55.052Z,890
2017-05-22T08:23:35.622Z,715
2017-05-22T08:24:16.047Z,685
2017-05-22T08:24:56.549Z,675
2017-05-22T08:25:37.023Z,675
2017-05-22T08:26:17.472Z,675
2017-05-22T08:26:57.927Z,670
2017-05-22T08:27:38.385Z,725
2017-05-22T08:28:18.863Z,835
2017-05-22T08:28:59.334Z,940
2017-05-22T08:29:39.805Z,1100
2017-05-22T08:30:20.290Z,1320
2017-05-22T08:31:00.762Z,1485
2017-05-22T08:31:41.297Z,1620
2017-05-22T08:32:21.748Z,1770
2017-05-22T08:33:02.167Z,1950
2017-05-22T08:35:30.185Z,2335
2017-05-22T08:37:48.134Z,2360
2017-05-22T08:38:28.556Z,2285
2017-05-22T08:39:09.022Z,1780
2017-05-22T08:39:49.576Z,1115
2017-05-22T08:40:30.162Z,615
2017-05-22T08:43:03.975Z,510
2017-05-22T08:43:44.478Z,510
2017-05-22T08:46:22.555Z,510
2017-05-22T08:47:03.073Z,515
2017-05-22T08:47:43.585Z,515
2017-05-22T08:50:22.040Z,830
2017-05-22T08:51:02.633Z,1480
2017-05-22T08:51:43.150Z,2065
2017-05-22T08:52:23.610Z,2345
2017-05-22T08:53:04.069Z,2370
2017-05-22T08:53:44.519Z,2510
2017-05-22T08:54:25.091Z,2560
2017-05-22T08:55:05.658Z,2545
2017-05-22T08:55:46.148Z,2520
2017-05-22T08:56:26.563Z,2480
2017-05-22T08:57:07.022Z,2485
2017-05-22T08:57:47.625Z,2425
2017-05-22T08:58:28.118Z,2385
2017-05-22T08:59:08.811Z,2420
2017-05-22T08:59:49.280Z,2490
2017-05-22T09:02:17.274Z,2580
2017-05-22T09:02:57.777Z,2555
2017-05-22T09:03:38.365Z,2590
2017-05-22T09:04:18.831Z,2580
2017-05-22T09:04:59.321Z,2565
2017-05-22T09:05:39.888Z,2510
2017-05-22T09:06:20.486Z,2570
2017-05-22T09:07:01.058Z,2600
2017-05-22T09:07:41.549Z,2605
2017-05-22T09:08:23.030Z,2610
2017-05-22T09:09:03.575Z,2665
2017-05-22T09:09:43.933Z,2685
2017-05-22T09:10:24.563Z,2645
2017-05-22T09:11:05.282Z,2625
2017-05-22T09:11:45.753Z,2620
2017-05-22T09:12:26.245Z,2565
2017-05-22T09:13:06.748Z,2575
2017-05-22T09:13:47.244Z,2590
2017-05-22T09:14:27.895Z,2590
2017-05-22T09:15:08.350Z,2600
2017-05-22T09:15:49.066Z,2620
2017-05-22T09:18:22.156Z,2605
2017-05-22T09:19:02.765Z,2535
2017-05-22T09:19:43.423Z,2605
2017-05-22T09:20:23.898Z,2485
2017-05-22T09:21:04.381Z,2465
2017-05-22T09:21:44.886Z,2080
2017-05-22T09:22:25.347Z,2280
2017-05-22T09:23:05.829Z,2260
2017-05-22T09:23:46.282Z,2360
2017-05-22T09:24:26.747Z,2470
2017-05-22T09:25:07.333Z,2600
2017-05-22T09:25:47.799Z,2200
2017-05-22T09:28:21.901Z,2700
2017-05-22T09:29:02.380Z,2660
2017-05-22T09:29:44.523Z,2685
2017-05-22T09:30:25.128Z,2660
2017-05-22T09:32:43.180Z,1450
2017-05-22T09:33:23.942Z,860
2017-05-22T09:34:04.744Z,770
2017-05-22T09:34:45.278Z,730
2017-05-22T09:35:25.749Z,720
2017-05-22T09:36:06.220Z,710
2017-05-22T09:36:46.960Z,705
2017-05-22T09:37:27.432Z,695
2017-05-22T09:38:07.978Z,700
2017-05-22T09:40:36.191Z,750
2017-05-22T09:41:16.686Z,760
2017-05-22T09:41:57.214Z,925
2017-05-22T09:42:37.699Z,1120
2017-05-22T09:43:18.246Z,1655
2017-05-22T09:43:58.815Z,2460
2017-05-22T09:44:39.386Z,2655
2017-05-22T09:45:19.899Z,2990
2017-05-22T09:46:00.512Z,2880
2017-05-22T09:46:40.964Z,2780
2017-05-22T09:47:21.880Z,2830
2017-05-22T09:48:02.307Z,2965
2017-05-22T09:52:36.255Z,2900
2017-05-22T09:53:16.860Z,2915
2017-05-22T09:53:57.265Z,2865
2017-05-22T09:54:37.737Z,2875
2017-05-22T09:57:15.960Z,2890
2017-05-22T09:57:56.417Z,2610
2017-05-22T09:58:36.937Z,695
2017-05-22T09:59:17.419Z,710
2017-05-22T10:01:50.854Z,2880
2017-05-22T10:02:31.483Z,3080
2017-05-22T10:03:12.072Z,3060
2017-05-22T10:03:52.796Z,3015
2017-05-22T10:04:33.417Z,2935
2017-05-22T10:05:13.997Z,3030
2017-05-22T10:05:54.638Z,2920
2017-05-22T10:06:35.308Z,2995
2017-05-22T10:07:15.942Z,490
2017-05-22T10:09:33.996Z,450
2017-05-22T10:10:14.498Z,490
2017-05-22T10:10:55.083Z,560
2017-05-22T10:11:35.564Z,3010
2017-05-22T10:13:53.373Z,695
2017-05-22T10:16:11.334Z,3265
2017-05-22T10:16:51.821Z,3135
2017-05-22T10:17:32.335Z,3015
2017-05-22T10:18:12.882Z,695
2017-05-22T10:18:53.454Z,480
2017-05-22T10:19:33.922Z,485
2017-05-22T10:20:14.408Z,475
2017-05-22T10:20:54.924Z,465
2017-05-22T10:21:35.423Z,460
2017-05-22T10:23:48.241Z,590
2017-05-22T10:24:28.993Z,680
2017-05-22T10:26:57.017Z,585
2017-05-22T10:27:37.549Z,640
2017-05-22T10:28:18.062Z,720
2017-05-22T10:28:58.635Z,775
2017-05-22T10:29:39.052Z,790
2017-05-22T10:30:19.542Z,815
2017-05-22T10:32:53.927Z,740
2017-05-22T10:33:34.439Z,740
2017-05-22T10:34:14.890Z,745
2017-05-22T10:34:55.904Z,760
2017-05-22T10:35:36.476Z,785
2017-05-22T10:36:16.980Z,770
2017-05-22T10:36:57.580Z,765
2017-05-22T10:39:25.614Z,775
2017-05-22T10:40:06.075Z,655
2017-05-22T10:40:46.613Z,585
2017-05-22T10:41:27.174Z,630
2017-05-22T10:42:07.647Z,725
2017-05-22T10:44:35.687Z,525
2017-05-22T10:45:16.189Z,800
2017-05-22T10:45:57.645Z,2335
2017-05-22T10:46:38.094Z,1790
2017-05-22T10:47:18.594Z,3605
2017-05-22T10:47:59.148Z,3035
2017-05-22T10:48:39.658Z,3255
2017-05-22T10:51:18.234Z,650
2017-05-22T10:52:00.219Z,525
2017-05-22T10:52:40.783Z,840
2017-05-22T10:53:22.005Z,2920
2017-05-22T10:54:02.435Z,3180
2017-05-22T10:54:43.418Z,495
2017-05-22T10:55:23.963Z,485
2017-05-22T10:56:04.505Z,535
2017-05-22T10:56:47.565Z,665
2017-05-22T10:59:27.822Z,3400
2017-05-22T11:00:09.560Z,3480
2017-05-22T11:00:50.468Z,3485
2017-05-22T11:01:31.407Z,3480
2017-05-22T11:02:12.270Z,3505
2017-05-22T11:02:53.301Z,2665
2017-05-22T11:03:34.204Z,3170
2017-05-22T11:04:16.098Z,3495
2017-05-22T11:04:57.124Z,3515
2017-05-22T11:05:38.956Z,3555
2017-05-22T11:06:19.859Z,3485
2017-05-22T11:07:00.760Z,3515
2017-05-22T11:09:42.562Z,3620
2017-05-22T11:10:23.033Z,3530
2017-05-22T11:11:03.502Z,3510
2017-05-22T11:11:43.989Z,3510
2017-05-22T11:13:56.741Z,3375
2017-05-22T11:14:37.294Z,3380
2017-05-22T11:15:17.751Z,3290
2017-05-22T11:15:58.230Z,3335
2017-05-22T11:16:38.778Z,3405
2017-05-22T11:17:20.003Z,3425
2017-05-22T11:18:00.697Z,3395
2017-05-22T11:18:41.226Z,3375
2017-05-22T11:19:21.732Z,3395
2017-05-22T11:20:02.291Z,3415
2017-05-22T11:22:43.760Z,3365
2017-05-22T11:25:12.567Z,3325
2017-05-22T11:25:53.126Z,3455
2017-05-22T11:26:33.915Z,3545
2017-05-22T11:28:47.034Z,3475
2017-05-22T11:29:28.534Z,3520
2017-05-22T11:30:09.540Z,3470
2017-05-22T11:30:50.081Z,3450
2017-05-22T11:31:30.524Z,3480
2017-05-22T11:32:10.982Z,3520
2017-05-22T11:32:51.672Z,3530
2017-05-22T11:33:32.172Z,3505
2017-05-22T11:34:13.057Z,3505
2017-05-22T11:34:53.510Z,3480
2017-05-22T11:35:34.021Z,3440
2017-05-22T11:36:14.568Z,3475
2017-05-22T11:36:55.046Z,3500
2017-05-22T11:39:33.529Z,3500
2017-05-22T11:40:14.072Z,3450